Congress, Arizona
Current Conditions -  °F | °C
As of 5:24 AM on Tuesday 27 Jan 2015 (Local Time) from KPRC Reporting Station
Light Rain Light Rain  
Wind Chill: 44°   Ceiling: 1800
Heat Index: 44°   Visibility: 5mi
Dew Point: 41°   Wind: 3mph
Humidity: 89%   Direction: 300°WNW
Pressure: 30.27"   Gusts: NA
Location:  34.16°N, 112.85°W
Report Text: KPRC 271224Z AUTO 30003KT 5SM -RA BR FEW004 BKN018 OVC048 07/05 A3027 RMK AO2 P0003 T00670050
Loading
Personal Weather Stations






























Interactive Weather Map New forecast layout! Learn more

10-Day Weather Forecast

Advertisements
Track Severe Weather on mobile